Time;durP1;ratioP1;P1;durP2;ratioP2;P2;SDS_P1;SDS_P2;PMS_P1;PMS_P2;Temp;Humidity;BMP_temperature;BMP_pressure;BME280_temperature;BME280_humidity;BME280_pressure;Samples;Min_cycle;Max_cycle;Signal;HPM_P1;HPM_P2
2022/07/01 00:05:53;;;;;;;10.30;1.90;;;15.70;99.90;;;;;;4837881;29;20102;-91
2022/07/01 00:08:32;;;;;;;;;;;;;;;;;;;;;
2022/07/01 00:14:34;;;;;;;6.50;1.33;;;15.70;99.90;;;;;;4792332;29;20282;-91
2022/07/01 00:17:35;;;;;;;7.30;1.33;;;15.70;99.90;;;;;;4828050;29;20061;-91
2022/07/01 00:20:37;;;;;;;;;;;;;;;;;;;;;
2022/07/01 00:23:26;;;;;;;6.05;1.23;;;15.70;99.90;;;;;;4785455;29;20058;-90
2022/07/01 00:26:27;;;;;;;6.88;1.23;;;15.70;99.90;;;;;;4786995;29;20050;-91
2022/07/01 00:32:41;;;;;;;7.32;1.33;;;15.70;99.90;;;;;;4757861;29;20185;-91
2022/07/01 00:35:15;;;;;;;6.47;1.10;;;15.70;99.90;;;;;;4840696;29;20086;-91
2022/07/01 00:37:46;;;;;;;5.72;1.13;;;15.70;99.90;;;;;;4831719;29;20050;-90
2022/07/01 00:47:53;;;;;;;5.00;1.15;;;15.60;99.90;;;;;;4779021;30;20059;-91
2022/07/01 00:50:23;;;;;;;3.80;1.08;;;15.70;99.90;;;;;;4835917;24;20140;-91
2022/07/01 00:52:55;;;;;;;6.97;1.75;;;15.70;99.90;;;;;;4831596;29;20045;-90
2022/07/01 00:55:55;;;;;;;6.47;1.90;;;15.70;99.90;;;;;;4830960;29;20057;-92
2022/07/01 01:01:30;;;;;;;4.80;1.40;;;15.80;99.90;;;;;;4902143;23;20066;-90
2022/07/01 01:03:56;;;;;;;4.78;1.23;;;15.70;99.90;;;;;;4830310;29;20482;-92
2022/07/01 01:06:33;;;;;;;5.35;1.35;;;15.70;99.90;;;;;;4830965;29;20053;-92
2022/07/01 01:09:28;;;;;;;7.40;2.17;;;15.70;99.90;;;;;;4837078;24;20060;-92
2022/07/01 01:12:40;;;;;;;5.72;1.30;;;15.80;99.90;;;;;;4906214;23;20068;-92
2022/07/01 01:15:53;;;;;;;4.60;1.17;;;15.70;99.90;;;;;;4829325;29;20418;-90
2022/07/01 01:19:09;;;;;;;4.95;1.20;;;15.60;99.90;;;;;;4812500;29;20053;-92
2022/07/01 01:22:22;;;;;;;2.92;0.90;;;15.60;99.90;;;;;;4721709;30;20632;-91
2022/07/01 01:25:24;;;;;;;2.85;0.60;;;15.60;99.90;;;;;;4722680;30;20059;-91
2022/07/01 01:28:32;;;;;;;3.25;0.90;;;15.60;99.90;;;;;;4738837;30;20083;-92
2022/07/01 01:38:48;;;;;;;3.38;0.65;;;15.60;99.90;;;;;;4769900;30;20187;-92
2022/07/01 01:46:14;;;;;;;4.90;0.90;;;15.60;99.90;;;;;;4733652;29;20048;-91
2022/07/01 01:52:49;;;;;;;3.22;1.00;;;15.60;99.90;;;;;;4719496;30;20053;-91
2022/07/01 01:55:35;;;;;;;4.57;1.00;;;15.60;99.90;;;;;;4739554;30;20067;-90
2022/07/01 01:58:11;;;;;;;4.18;1.00;;;15.50;99.90;;;;;;4739462;30;20055;-91
2022/07/01 02:01:47;;;;;;;3.83;1.33;;;15.50;99.90;;;;;;4740514;29;20055;-92
2022/07/01 02:04:20;;;;;;;6.57;1.02;;;15.50;99.90;;;;;;4730849;30;20190;-91
2022/07/01 02:07:00;;;;;;;3.97;0.90;;;15.50;99.90;;;;;;4739034;30;20067;-92
2022/07/01 02:09:50;;;;;;;4.70;0.80;;;15.50;99.90;;;;;;4793781;29;20050;-92
2022/07/01 02:23:25;;;;;;;5.13;1.30;;;15.40;99.90;;;;;;4775628;29;20054;-92
2022/07/01 02:26:06;;;;;;;;;;;;;;;;;;;;;
2022/07/01 02:29:28;;;;;;;1.33;0.80;;;15.30;99.90;;;;;;4808657;29;20548;-92
2022/07/01 02:39:39;;;;;;;2.70;0.90;;;15.30;99.90;;;;;;4786154;29;20122;-93
2022/07/01 02:42:37;;;;;;;3.35;1.00;;;15.20;99.90;;;;;;4741512;30;20587;-94
2022/07/01 02:46:41;;;;;;;;;;;;;;;;;;;;;
2022/07/01 02:50:08;;;;;;;3.60;1.27;;;15.20;99.90;;;;;;4699840;30;20441;-92
2022/07/01 02:52:38;;;;;;;4.30;1.30;;;15.10;99.90;;;;;;4703049;30;20171;-93
2022/07/01 02:55:45;;;;;;;3.70;1.38;;;15.10;99.90;;;;;;4681901;30;20095;-93
2022/07/01 05:27:49;;;;;;;13.50;8.98;;;15.30;99.90;;;;;;4770601;29;20091;-92
2022/07/01 05:31:24;;;;;;;15.27;8.68;;;15.30;99.90;;;;;;4794302;29;20050;-92
2022/07/01 05:34:23;;;;;;;14.38;9.63;;;15.30;99.90;;;;;;4721220;30;20060;-92
2022/07/01 05:37:23;;;;;;;;;;;;;;;;;;;;;
2022/07/01 05:40:36;;;;;;;16.67;9.88;;;15.50;99.90;;;;;;4808886;29;20055;-93
2022/07/01 05:51:27;;;;;;;24.48;14.52;;;15.60;99.90;;;;;;4709998;30;20067;-93
2022/07/01 05:54:41;;;;;;;;;;;;;;;;;;;;;
2022/07/01 05:58:03;;;;;;;;;;;;;;;;;;;;;
2022/07/01 06:15:37;;;;;;;25.67;15.73;;;16.10;99.90;;;;;;4794577;29;20537;-92
2022/07/01 06:35:56;;;;;;;;;;;;;;;;;;;;;
2022/07/01 08:03:09;;;;;;;22.88;15.27;;;18.10;99.90;;;;;;4854596;29;20122;-93
2022/07/01 08:39:33;;;;;;;16.35;11.00;;;18.50;99.90;;;;;;4872118;23;20042;-96
2022/07/01 09:10:46;;;;;;;;;;;;;;;;;;;;;
2022/07/01 09:13:45;;;;;;;;;;;;;;;;;;;;;
2022/07/01 09:20:14;;;;;;;;;;;;;;;;;;;;;
2022/07/01 09:23:32;;;;;;;9.85;3.88;;;20.40;99.90;;;;;;4827616;29;20054;-93
2022/07/01 09:37:02;;;;;;;13.05;4.43;;;20.50;99.90;;;;;;4793581;30;20055;-88
2022/07/01 09:39:27;;;;;;;9.70;4.00;;;20.30;99.90;;;;;;4781953;29;20576;-88
2022/07/01 09:41:56;;;;;;;13.07;4.95;;;20.40;99.90;;;;;;4804781;29;20054;-90
2022/07/01 09:44:22;;;;;;;8.48;3.95;;;20.50;99.90;;;;;;4829136;29;20041;-91
2022/07/01 09:46:52;;;;;;;12.57;3.90;;;20.60;99.90;;;;;;4829264;29;20083;-93
2022/07/01 09:49:24;;;;;;;17.65;3.20;;;20.60;99.90;;;;;;4829627;29;20114;-94
2022/07/01 09:51:51;;;;;;;8.25;3.05;;;20.50;99.90;;;;;;4829785;29;20459;-92
2022/07/01 09:54:21;;;;;;;8.18;3.35;;;20.50;99.90;;;;;;4829800;29;20164;-92
2022/07/01 09:56:56;;;;;;;11.50;3.42;;;20.50;99.90;;;;;;4829458;29;20052;-93
2022/07/01 09:59:22;;;;;;;9.35;3.28;;;20.70;99.90;;;;;;4821123;29;20145;-91
2022/07/01 10:01:48;;;;;;;9.20;3.58;;;20.70;99.90;;;;;;4811325;29;20175;-94
2022/07/01 10:04:16;;;;;;;9.88;2.85;;;20.70;99.90;;;;;;4811730;29;20053;-92
2022/07/01 10:07:05;;;;;;;6.82;2.40;;;20.80;99.90;;;;;;4829287;29;20128;-93
2022/07/01 10:09:56;;;;;;;9.57;2.75;;;20.80;99.90;;;;;;4829612;29;20056;-91
2022/07/01 10:12:40;;;;;;;8.23;2.38;;;20.90;99.90;;;;;;4825701;29;20125;-92
2022/07/01 10:15:11;;;;;;;10.35;2.45;;;21.10;99.90;;;;;;4825429;29;20057;-93
2022/07/01 10:17:44;;;;;;;10.10;2.53;;;21.30;99.90;;;;;;4828036;29;20106;-90
2022/07/01 10:20:13;;;;;;;11.68;3.38;;;21.30;99.90;;;;;;4827723;29;20061;-87
2022/07/01 10:22:39;;;;;;;10.32;2.85;;;21.10;99.90;;;;;;4828987;29;20054;-91
2022/07/01 10:25:38;;;;;;;6.32;2.60;;;21.00;99.90;;;;;;4827254;29;20509;-93
2022/07/01 10:28:24;;;;;;;6.95;2.63;;;21.00;99.90;;;;;;4828125;29;20136;-91
2022/07/01 10:30:53;;;;;;;9.82;2.55;;;21.00;99.90;;;;;;4828539;29;20058;-89
2022/07/01 10:33:32;;;;;;;8.48;2.65;;;21.30;99.90;;;;;;4827389;29;20444;-87
2022/07/01 10:36:12;;;;;;;6.90;2.90;;;21.60;99.90;;;;;;4828279;29;20052;-91
2022/07/01 10:39:00;;;;;;;8.32;2.58;;;21.90;99.90;;;;;;4829298;29;20046;-92
2022/07/01 10:41:27;;;;;;;6.32;2.42;;;21.90;99.90;;;;;;4829203;29;20045;-90
2022/07/01 10:43:55;;;;;;;13.23;2.45;;;22.00;99.90;;;;;;4828378;29;20082;-88
2022/07/01 10:46:44;;;;;;;9.23;2.55;;;22.00;99.90;;;;;;4829030;29;20456;-87
2022/07/01 10:49:34;;;;;;;7.85;2.30;;;21.90;99.90;;;;;;4830124;29;20098;-94
2022/07/01 10:52:19;;;;;;;9.57;2.35;;;21.90;99.90;;;;;;4832005;29;20082;-91
2022/07/01 11:03:11;;;;;;;7.65;2.80;;;22.00;99.90;;;;;;4844516;29;20168;-93
2022/07/01 11:08:50;;;;;;;7.50;2.40;;;22.10;99.90;;;;;;4844718;29;20394;-93
2022/07/01 11:12:17;;;;;;;7.65;2.83;;;22.00;99.90;;;;;;4847484;29;20145;-93
2022/07/01 11:15:35;;;;;;;;;;;;;;;;;;;;;
2022/07/01 11:18:25;;;;;;;9.23;2.05;;;21.60;99.90;;;;;;4776684;29;20421;-93
2022/07/01 11:25:22;;;;;;;;;;;;;;;;;;;;;
2022/07/01 11:39:45;;;;;;;;;;;;;;;;;;;;;
2022/07/01 11:46:52;;;;;;;6.28;1.15;;;18.90;99.90;;;;;;4752264;30;20052;-92
2022/07/01 11:59:23;;;;;;;3.60;0.80;;;20.10;99.90;;;;;;4788027;29;20054;-91
2022/07/01 12:02:30;;;;;;;4.38;0.60;;;20.40;99.90;;;;;;4774425;29;20054;-92
2022/07/01 12:05:51;;;;;;;3.92;0.75;;;20.40;99.90;;;;;;4736530;30;20525;-92
2022/07/01 12:12:33;;;;;;;6.60;1.08;;;20.10;99.90;;;;;;4843114;29;20052;-93
2022/07/01 12:15:42;;;;;;;7.28;1.20;;;20.00;99.90;;;;;;4736882;30;20090;-93
2022/07/01 12:33:24;;;;;;;9.38;1.08;;;21.90;99.90;;;;;;4808761;29;20087;-92
2022/07/01 12:35:50;;;;;;;9.20;1.02;;;21.70;99.90;;;;;;4832967;29;20080;-88
2022/07/01 12:38:25;;;;;;;5.97;0.82;;;21.70;99.90;;;;;;4832410;29;20080;-87
2022/07/01 12:40:51;;;;;;;9.82;0.90;;;22.00;99.90;;;;;;4832997;29;20049;-88
2022/07/01 12:43:43;;;;;;;4.50;0.80;;;22.20;99.90;;;;;;4832171;29;20053;-89
2022/07/01 12:46:40;;;;;;;5.95;0.70;;;22.50;99.90;;;;;;4833178;29;20121;-89
2022/07/01 12:49:35;;;;;;;10.40;0.95;;;22.50;99.90;;;;;;4833901;29;20052;-90
2022/07/01 12:52:41;;;;;;;8.13;1.10;;;22.40;99.90;;;;;;4790718;29;20053;-89
2022/07/01 12:55:56;;;;;;;5.22;0.82;;;22.40;99.90;;;;;;4832123;29;20129;-89
2022/07/01 12:59:09;;;;;;;3.10;0.63;;;22.20;99.90;;;;;;4787866;30;20120;-88
2022/07/01 13:05:55;;;;;;;5.25;0.60;;;21.90;99.90;;;;;;4789857;30;20971;-88
2022/07/01 13:12:49;;;;;;;5.00;0.45;;;22.40;99.90;;;;;;4771124;30;20087;-87
2022/07/01 13:15:40;;;;;;;8.05;0.80;;;22.70;99.90;;;;;;4813205;29;20515;-89
2022/07/01 13:18:17;;;;;;;5.72;0.95;;;22.80;99.90;;;;;;4814365;29;20057;-89
2022/07/01 13:21:21;;;;;;;5.55;0.65;;;22.80;99.90;;;;;;4808011;29;20058;-88
2022/07/01 13:23:47;;;;;;;3.35;0.77;;;22.80;99.90;;;;;;4813262;29;20487;-88
2022/07/01 13:26:17;;;;;;;4.78;0.85;;;22.60;99.90;;;;;;4826860;29;20106;-88
2022/07/01 13:28:49;;;;;;;4.82;0.80;;;22.60;99.90;;;;;;4828295;29;20086;-89
2022/07/01 13:35:07;;;;;;;5.00;0.65;;;22.50;99.90;;;;;;4797693;29;20561;-93
2022/07/01 13:50:20;;;;;;;;;;;;;;;;;;;;;
2022/07/01 13:53:11;;;;;;;4.18;0.70;;;22.00;99.90;;;;;;4616738;30;20059;-94
2022/07/01 13:56:49;;;;;;;;;;;;;;;;;;;;;
2022/07/01 14:26:36;;;;;;;2.67;0.60;;;22.20;99.90;;;;;;5720375;23;18751076;-93
2022/07/01 14:29:25;;;;;;;6.75;0.75;;;22.30;99.90;;;;;;6195543;23;20289;-93
2022/07/01 14:35:24;;;;;;;;;;;;;;;;;;;;;
2022/07/01 14:38:16;;;;;;;4.78;0.80;;;22.40;99.90;;;;;;6219566;23;20012;-94
2022/07/01 14:43:53;;;;;;;5.57;0.75;;;22.60;99.90;;;;;;6180481;23;20021;-94
2022/07/01 14:47:11;;;;;;;7.68;0.88;;;22.50;99.70;;;;;;6163153;23;20017;-93
2022/07/01 14:49:56;;;;;;;;;;;;;;;;;;;;;
2022/07/01 14:52:43;;;;;;;4.38;0.50;;;22.30;99.90;;;;;;6189893;23;20036;-93
2022/07/01 14:59:37;;;;;;;3.25;0.50;;;22.00;99.90;;;;;;6066890;23;20104;-92
2022/07/01 15:03:30;;;;;;;7.55;0.75;;;21.50;99.90;;;;;;6139965;23;20021;-92
2022/07/01 15:06:35;;;;;;;;;;;;;;;;;;;;;
2022/07/01 15:10:01;;;;;;;;;;;;;;;;;;;;;
2022/07/01 15:13:21;;;;;;;;;;;;;;;;;;;;;
2022/07/01 15:19:54;;;;;;;;;;;21.90;99.90;;;;;;6136767;23;20395;-93
2022/07/01 15:23:12;;;;;;;;;;;;;;;;;;;;;
2022/07/01 15:29:56;;;;;;;8.13;1.10;;;22.00;99.90;;;;;;6098962;23;20461;-93
2022/07/01 15:33:04;;;;;;;;;;;;;;;;;;;;;
2022/07/01 15:36:17;;;;;;;;;;;;;;;;;;;;;
2022/07/01 15:40:17;;;;;;;8.73;1.00;;;21.40;99.90;;;;;;6035794;23;20097;-92
2022/07/01 15:51:36;;;;;;;10.50;1.10;;;21.70;99.90;;;;;;6171177;23;20083;-93
2022/07/01 15:54:21;;;;;;;7.18;1.13;;;21.50;99.90;;;;;;6114951;23;20115;-93
2022/07/01 15:56:58;;;;;;;7.63;1.10;;;21.10;99.90;;;;;;6161922;23;20027;-94
2022/07/01 16:06:07;;;;;;;6.38;0.80;;;21.60;99.90;;;;;;6179746;22;20019;-94
2022/07/01 16:32:09;;;;;;;;;;;;;;;;;;;;;
2022/07/01 17:01:09;;;;;;;6.45;0.90;;;24.80;97.50;;;;;;6121809;23;20029;-94
2022/07/01 17:27:03;;;;;;;4.72;0.68;;;22.10;99.90;;;;;;5904365;23;20024;-92
2022/07/01 17:37:56;;;;;;;;;;;;;;;;;;;;;
2022/07/01 17:45:50;;;;;;;;;;;;;;;;;;;;;
2022/07/01 18:28:12;;;;;;;3.45;0.70;;;20.70;99.90;;;;;;6142607;22;20045;-96
2022/07/01 18:30:42;;;;;;;5.03;0.60;;;20.40;99.90;;;;;;6102889;23;20049;-96
2022/07/01 18:33:16;;;;;;;6.88;1.05;;;20.30;99.90;;;;;;6103331;23;20029;-96
2022/07/01 18:35:45;;;;;;;4.95;0.90;;;20.20;99.90;;;;;;6127157;23;20021;-96
2022/07/01 18:38:11;;;;;;;5.25;0.50;;;20.00;99.90;;;;;;6128061;23;20014;-96
2022/07/01 18:40:38;;;;;;;3.03;0.50;;;19.90;99.90;;;;;;6103573;23;20017;-96
2022/07/01 18:43:06;;;;;;;6.05;0.60;;;19.80;99.90;;;;;;6126184;23;20024;-96
2022/07/01 18:45:32;;;;;;;4.70;0.88;;;19.70;99.90;;;;;;6126261;23;20047;-96
2022/07/01 18:48:01;;;;;;;3.72;0.65;;;19.60;99.90;;;;;;6127378;23;20072;-96
2022/07/01 18:50:29;;;;;;;4.20;0.52;;;19.50;99.90;;;;;;6127968;23;20029;-96
2022/07/01 18:52:59;;;;;;;3.15;0.57;;;19.50;99.90;;;;;;6125839;23;20029;-94
2022/07/01 18:55:26;;;;;;;3.65;0.47;;;19.40;99.90;;;;;;6125852;23;20025;-96
2022/07/01 18:57:52;;;;;;;3.25;0.50;;;19.30;99.90;;;;;;6136167;23;20097;-96
2022/07/01 19:00:23;;;;;;;3.97;0.77;;;19.20;99.90;;;;;;6138855;23;20029;-96
2022/07/01 19:02:49;;;;;;;3.28;0.90;;;19.10;99.90;;;;;;6142171;23;20009;-94
2022/07/01 19:05:18;;;;;;;4.03;0.70;;;19.10;99.90;;;;;;6140895;23;20017;-96
2022/07/01 19:07:45;;;;;;;4.70;0.90;;;18.90;99.90;;;;;;6143472;23;20063;-96
2022/07/01 19:10:12;;;;;;;2.83;0.52;;;18.80;99.90;;;;;;6245054;23;20077;-96
2022/07/01 19:12:39;;;;;;;2.75;0.88;;;18.80;99.90;;;;;;6114693;23;20017;-96
2022/07/01 19:15:09;;;;;;;4.90;0.85;;;18.70;99.90;;;;;;6139042;23;20084;-96
2022/07/01 19:17:41;;;;;;;2.35;0.65;;;18.60;99.90;;;;;;6136244;23;20032;-96
2022/07/01 19:20:07;;;;;;;3.85;0.70;;;18.50;99.90;;;;;;6136212;23;20022;-96
2022/07/01 19:22:48;;;;;;;7.40;1.00;;;18.40;99.90;;;;;;6132553;23;20021;-96
2022/07/01 19:25:17;;;;;;;4.68;0.60;;;18.40;99.90;;;;;;6156893;23;20021;-96
2022/07/01 19:27:43;;;;;;;2.22;0.70;;;18.30;99.90;;;;;;6133025;23;20005;-96
2022/07/01 19:30:10;;;;;;;3.88;0.57;;;18.20;99.90;;;;;;6140659;23;20017;-96
2022/07/01 19:32:36;;;;;;;2.25;0.52;;;18.20;99.90;;;;;;6143875;23;20021;-96
2022/07/01 19:35:05;;;;;;;3.08;0.50;;;18.10;99.90;;;;;;6105396;23;20024;-96
2022/07/01 19:37:34;;;;;;;3.28;0.55;;;17.90;99.90;;;;;;6099333;23;20021;-96
2022/07/01 19:40:10;;;;;;;2.88;0.60;;;17.90;99.90;;;;;;6205889;22;20030;-96
2022/07/01 19:42:37;;;;;;;4.30;0.68;;;17.90;99.90;;;;;;6122011;23;20056;-96
2022/07/01 19:45:05;;;;;;;5.30;0.80;;;17.80;99.90;;;;;;6127104;23;20032;-96
2022/07/01 19:47:34;;;;;;;6.70;1.00;;;17.70;99.90;;;;;;6140495;23;20043;-96
2022/07/01 19:50:01;;;;;;;4.82;0.70;;;17.70;99.90;;;;;;6126854;23;20024;-96
2022/07/01 19:52:28;;;;;;;4.20;0.77;;;17.60;99.90;;;;;;6148149;23;20016;-96
2022/07/01 19:54:57;;;;;;;5.47;0.60;;;17.60;99.90;;;;;;6200580;22;20027;-96
2022/07/01 19:57:24;;;;;;;5.53;0.90;;;17.60;99.90;;;;;;6169672;22;20020;-96
2022/07/01 19:59:50;;;;;;;7.88;1.13;;;17.40;99.90;;;;;;6177088;23;20029;-96
2022/07/01 20:02:18;;;;;;;2.83;0.50;;;17.30;99.90;;;;;;6180336;23;20016;-96
2022/07/01 20:04:54;;;;;;;8.18;0.85;;;17.30;99.90;;;;;;6183387;22;20016;-96
2022/07/01 20:08:04;;;;;;;5.72;0.93;;;17.20;99.90;;;;;;6233174;23;20024;-96
2022/07/01 20:10:32;;;;;;;3.15;0.80;;;17.10;99.90;;;;;;6206954;23;20092;-96
2022/07/01 20:13:08;;;;;;;3.78;0.90;;;17.00;99.90;;;;;;6199819;23;20028;-96
2022/07/01 20:15:34;;;;;;;3.40;0.80;;;16.90;99.90;;;;;;6175144;23;20073;-96
2022/07/01 20:18:00;;;;;;;4.65;0.90;;;16.80;99.90;;;;;;6171483;23;20352;-96
2022/07/01 20:20:28;;;;;;;6.45;0.90;;;16.70;99.90;;;;;;6168248;23;20021;-96
2022/07/01 20:22:58;;;;;;;3.38;0.82;;;16.50;99.90;;;;;;6151296;23;20020;-96
2022/07/01 20:25:24;;;;;;;4.93;0.70;;;16.40;99.90;;;;;;6178008;23;20005;-96
2022/07/01 20:27:59;;;;;;;5.18;1.25;;;16.30;99.90;;;;;;6181600;22;20060;-96
2022/07/01 20:30:31;;;;;;;4.10;0.90;;;16.10;99.90;;;;;;6173232;22;20029;-96
2022/07/01 20:32:57;;;;;;;5.70;1.00;;;16.20;99.90;;;;;;6144869;23;20050;-96
2022/07/01 20:35:48;;;;;;;4.25;0.80;;;16.00;99.90;;;;;;6110610;22;20030;-90
2022/07/01 20:38:17;;;;;;;6.45;1.10;;;16.00;99.90;;;;;;6099636;23;20026;-90
2022/07/01 20:40:48;;;;;;;4.22;1.02;;;15.80;99.90;;;;;;6100078;23;20092;-90
2022/07/01 20:43:17;;;;;;;8.63;1.30;;;15.70;99.90;;;;;;6099712;23;20101;-90
2022/07/01 20:45:43;;;;;;;6.68;1.10;;;15.60;99.90;;;;;;6152301;23;20385;-89
2022/07/01 20:49:22;;;;;;;7.63;1.35;;;15.50;99.90;;;;;;6099642;23;20025;-91
2022/07/01 20:51:51;;;;;;;5.85;1.00;;;15.40;99.90;;;;;;6053397;23;20013;-90
2022/07/01 20:54:24;;;;;;;7.88;1.20;;;15.40;99.90;;;;;;6099410;23;20052;-89
2022/07/01 20:56:50;;;;;;;7.90;1.17;;;15.40;99.90;;;;;;6099269;23;20017;-89
2022/07/01 20:59:16;;;;;;;5.22;1.20;;;15.40;99.90;;;;;;6099565;23;20013;-90
2022/07/01 21:01:42;;;;;;;5.85;1.63;;;15.40;99.90;;;;;;6099163;23;20022;-90
2022/07/01 21:04:26;;;;;;;4.18;1.40;;;15.50;99.90;;;;;;6100534;23;20100;-90
2022/07/01 21:06:57;;;;;;;7.55;1.50;;;15.40;99.90;;;;;;6100171;23;20046;-91
2022/07/01 21:09:44;;;;;;;11.05;1.58;;;15.40;99.90;;;;;;6123554;23;20071;-90
2022/07/01 21:12:10;;;;;;;5.07;1.20;;;15.20;99.90;;;;;;6099588;23;20044;-88
2022/07/01 21:14:36;;;;;;;3.35;1.05;;;15.10;99.90;;;;;;6099951;23;20380;-90
2022/07/01 21:17:02;;;;;;;6.18;1.20;;;15.00;99.90;;;;;;6098820;23;20057;-89
2022/07/01 21:19:28;;;;;;;4.90;1.17;;;14.90;99.90;;;;;;6099265;23;20014;-90
2022/07/01 21:21:57;;;;;;;6.95;1.20;;;14.90;99.90;;;;;;6099392;23;20088;-90
2022/07/01 21:24:26;;;;;;;8.75;1.40;;;14.80;99.90;;;;;;6099640;23;20074;-90
2022/07/01 21:26:58;;;;;;;7.47;1.30;;;14.80;99.90;;;;;;6099638;23;20088;-90
2022/07/01 21:29:29;;;;;;;5.00;1.10;;;14.70;99.90;;;;;;6101855;23;20354;-90
2022/07/01 21:32:13;;;;;;;6.45;1.40;;;14.70;99.90;;;;;;6102887;23;20052;-90
2022/07/01 21:34:41;;;;;;;4.95;1.10;;;14.60;99.90;;;;;;6100269;23;20100;-90
2022/07/01 21:37:13;;;;;;;3.70;1.25;;;14.60;99.90;;;;;;6098982;23;20461;-90
2022/07/01 21:39:51;;;;;;;;;;;;;;;;;;;;;
2022/07/01 21:42:39;;;;;;;6.47;1.10;;;14.50;99.90;;;;;;6123951;23;20097;-90
2022/07/01 21:45:25;;;;;;;8.75;1.17;;;14.40;99.90;;;;;;6099908;23;20020;-88
2022/07/01 21:58:53;;;;;;;9.25;1.63;;;14.20;99.90;;;;;;6190926;23;20037;-90
2022/07/01 22:02:14;;;;;;;6.13;1.63;;;13.80;99.90;;;;;;6040271;23;20022;-92
2022/07/01 22:15:59;;;;;;;5.68;1.40;;;14.00;99.90;;;;;;6005808;23;20023;-90
2022/07/01 22:18:29;;;;;;;5.70;1.50;;;13.80;99.90;;;;;;6009261;23;20126;-89
2022/07/01 22:21:16;;;;;;;4.95;1.70;;;13.90;99.90;;;;;;6043836;23;20378;-90
2022/07/01 22:24:16;;;;;;;6.82;1.55;;;13.80;99.90;;;;;;6040455;23;20061;-91
2022/07/01 22:27:56;;;;;;;9.48;1.35;;;13.90;99.90;;;;;;6095898;23;20456;-91
2022/07/01 22:33:24;;;;;;;3.67;1.50;;;13.90;99.90;;;;;;6171484;23;20083;-92
2022/07/01 22:35:50;;;;;;;6.13;1.63;;;13.90;99.90;;;;;;6130783;23;20021;-92
2022/07/01 22:38:17;;;;;;;7.38;1.50;;;14.00;99.90;;;;;;6130754;23;20059;-92
2022/07/01 22:40:44;;;;;;;4.80;1.50;;;14.00;99.90;;;;;;6131053;23;20036;-94
2022/07/01 22:43:14;;;;;;;5.70;1.23;;;14.00;99.90;;;;;;6130949;23;20009;-95
2022/07/01 22:45:50;;;;;;;4.63;1.30;;;14.00;99.90;;;;;;6131344;23;20445;-95
2022/07/01 22:48:28;;;;;;;4.20;1.50;;;14.00;99.90;;;;;;6155547;23;20013;-94
2022/07/01 22:50:59;;;;;;;6.55;1.38;;;14.00;99.90;;;;;;6131312;23;20021;-95
2022/07/01 22:53:34;;;;;;;11.93;1.50;;;14.00;99.90;;;;;;6131183;23;20096;-95
2022/07/01 22:56:02;;;;;;;7.72;1.60;;;14.00;99.90;;;;;;6131685;23;20341;-95
2022/07/01 22:58:41;;;;;;;9.77;1.65;;;14.00;99.90;;;;;;6130560;23;20017;-95
2022/07/01 23:01:13;;;;;;;4.65;1.38;;;14.10;99.90;;;;;;6131375;23;20013;-95
2022/07/01 23:03:45;;;;;;;9.77;1.35;;;14.10;99.90;;;;;;6131217;23;20024;-95
2022/07/01 23:06:14;;;;;;;6.22;1.70;;;14.10;99.90;;;;;;6131035;23;20021;-95
2022/07/01 23:08:53;;;;;;;7.50;1.15;;;14.10;99.90;;;;;;6130967;23;20021;-95
2022/07/01 23:11:29;;;;;;;4.15;1.25;;;14.00;99.90;;;;;;6131056;23;20021;-95
2022/07/01 23:16:56;;;;;;;7.05;1.70;;;13.90;99.90;;;;;;6155112;23;20077;-94
2022/07/01 23:19:23;;;;;;;5.20;1.20;;;13.80;99.90;;;;;;6131089;23;20013;-94
2022/07/01 23:21:51;;;;;;;4.63;1.35;;;13.80;99.90;;;;;;6129817;23;20468;-94
2022/07/01 23:24:20;;;;;;;8.50;1.52;;;13.70;99.90;;;;;;6131166;23;20010;-95
2022/07/01 23:26:47;;;;;;;4.50;1.38;;;13.70;99.90;;;;;;6131591;23;20028;-94
2022/07/01 23:29:13;;;;;;;7.97;1.40;;;13.70;99.90;;;;;;6130635;23;20009;-94
2022/07/01 23:31:42;;;;;;;7.97;2.10;;;13.70;99.90;;;;;;6130742;23;20028;-94
2022/07/01 23:34:10;;;;;;;7.15;1.65;;;13.70;99.90;;;;;;6155003;22;20017;-94
2022/07/01 23:36:36;;;;;;;4.60;1.42;;;13.70;99.90;;;;;;6130795;23;20348;-94
2022/07/01 23:39:02;;;;;;;6.82;1.75;;;13.70;99.90;;;;;;6130736;23;20056;-94
2022/07/01 23:41:28;;;;;;;3.33;1.40;;;13.70;99.90;;;;;;6130494;23;20090;-94
2022/07/01 23:43:54;;;;;;;3.17;1.42;;;13.70;99.90;;;;;;6130490;23;20025;-94
2022/07/01 23:46:21;;;;;;;4.78;1.50;;;13.60;99.90;;;;;;6130848;23;20017;-95
2022/07/01 23:48:46;;;;;;;6.88;1.60;;;13.70;99.90;;;;;;6130634;23;20403;-95
2022/07/01 23:51:12;;;;;;;4.45;1.90;;;13.60;99.90;;;;;;6130777;23;20021;-94
2022/07/01 23:53:38;;;;;;;6.57;1.45;;;13.60;99.90;;;;;;6130594;23;20096;-94
2022/07/01 23:56:04;;;;;;;6.47;1.80;;;13.70;99.90;;;;;;6130960;23;20021;-95
2022/07/01 23:58:30;;;;;;;4.70;1.77;;;13.60;99.90;;;;;;6131849;23;20067;-92
